Terminal Aerodrome Forecast
Issued by NWS

Home | Current Version | Previous Version | Text Only | Print | Product List | Glossary On
Versions: 1 2 3 4 5 6 7 8 9 10 11 12 13 14
000
FTUS44 KCRP 252100 AAA
TAFLRD
TAF AMD
KLRD 252116Z 2521/2618 15011KT P6SM VCTS SCT035CB BKN080
      TEMPO 2521/2524 VRB20G30KT 2SM TSRA BR SCT007 BKN035CB
     FM260100 14014KT P6SM FEW030
      TEMPO 2611/2614 BKN022=

USA.gov is the U.S. government's official web portal to all federal, state and local government web resources and services.